createdAt,value
2019-06-08T00:00:16.805Z,1003.24
2019-06-08T00:01:16.486Z,1003.24
2019-06-08T00:02:16.609Z,1003.25
2019-06-08T00:04:43.865Z,1003.20
2019-06-08T00:05:43.889Z,1003.15
2019-06-08T00:06:43.923Z,1003.18
2019-06-08T00:07:43.950Z,1003.19
2019-06-08T00:08:43.974Z,1003.05
2019-06-08T00:09:44.004Z,1003.15
2019-06-08T00:10:44.037Z,1003.18
2019-06-08T00:11:44.060Z,1003.16
2019-06-08T00:12:44.091Z,1003.10
2019-06-08T00:13:44.115Z,1003.14
2019-06-08T00:14:44.147Z,1003.12
2019-06-08T00:15:44.169Z,1003.13
2019-06-08T00:16:44.199Z,1003.18
2019-06-08T00:17:44.228Z,1003.17
2019-06-08T00:18:44.262Z,1003.14
2019-06-08T00:19:44.285Z,1003.19
2019-06-08T00:20:44.315Z,1003.24
2019-06-08T00:21:44.345Z,1003.18
2019-06-08T00:22:44.368Z,1003.36
2019-06-08T00:23:44.398Z,1003.26
2019-06-08T00:24:44.422Z,1003.33
2019-06-08T00:25:44.449Z,1003.30
2019-06-08T00:26:44.480Z,1003.25
2019-06-08T00:27:44.505Z,1003.25
2019-06-08T00:28:44.531Z,1003.22
2019-06-08T00:29:44.564Z,1003.28
2019-06-08T00:30:44.595Z,1003.34
2019-06-08T00:31:44.614Z,1003.32
2019-06-08T00:32:44.645Z,1003.29
2019-06-08T00:33:44.677Z,1003.26
2019-06-08T00:34:44.700Z,1003.30
2019-06-08T00:35:44.728Z,1003.26
2019-06-08T00:36:44.754Z,1003.24
2019-06-08T00:37:44.780Z,1003.17
2019-06-08T00:38:44.809Z,1003.15
2019-06-08T00:39:44.847Z,1003.13
2019-06-08T00:40:44.866Z,1003.13
2019-06-08T00:41:44.891Z,1003.14
2019-06-08T00:42:44.924Z,1003.06
2019-06-08T00:43:44.948Z,1003.10
2019-06-08T00:44:44.978Z,1003.12
2019-06-08T00:45:45.005Z,1003.04
2019-06-08T00:46:45.036Z,1003.10
2019-06-08T00:47:47.839Z,1003.13
2019-06-08T00:48:45.090Z,1003.12
2019-06-08T00:49:45.124Z,1003.03
2019-06-08T00:50:45.143Z,1003.26
2019-06-08T00:51:45.178Z,1003.26
2019-06-08T00:52:45.198Z,1003.26
2019-06-08T00:53:45.226Z,1003.23
2019-06-08T00:54:45.260Z,1003.29
2019-06-08T00:55:45.285Z,1003.41
2019-06-08T00:57:32.872Z,1003.33
2019-06-08T00:58:32.903Z,1003.33
2019-06-08T00:59:32.926Z,1003.38
2019-06-08T01:00:32.959Z,1003.30
2019-06-08T01:01:32.980Z,1003.27
2019-06-08T01:02:33.009Z,1003.49
2019-06-08T01:03:33.038Z,1003.34
2019-06-08T01:04:33.067Z,1003.35
2019-06-08T01:05:33.103Z,1003.41
2019-06-08T01:06:33.121Z,1003.35
2019-06-08T01:07:33.174Z,1003.30
2019-06-08T01:08:33.175Z,1003.36
2019-06-08T01:09:33.211Z,1003.34
2019-06-08T01:10:33.229Z,1003.35
2019-06-08T01:11:33.259Z,1003.41
2019-06-08T01:12:33.287Z,1003.39
2019-06-08T01:13:33.321Z,1003.43
2019-06-08T01:14:33.342Z,1003.44
2019-06-08T01:15:34.473Z,1003.44
2019-06-08T01:16:33.425Z,1003.49
2019-06-08T01:17:33.425Z,1003.49
2019-06-08T01:18:33.453Z,1003.57
2019-06-08T01:19:33.488Z,1003.52
2019-06-08T01:20:33.511Z,1003.55
2019-06-08T01:21:33.533Z,1003.53
2019-06-08T01:22:33.564Z,1003.54
2019-06-08T01:23:33.588Z,1003.56
2019-06-08T01:24:33.631Z,1003.56
2019-06-08T01:25:33.647Z,1003.52
2019-06-08T01:26:33.680Z,1003.52
2019-06-08T01:27:33.699Z,1003.47
2019-06-08T01:28:33.732Z,1003.45
2019-06-08T01:29:33.757Z,1003.51
2019-06-08T01:30:33.789Z,1003.42
2019-06-08T01:31:33.815Z,1003.46
2019-06-08T01:32:33.838Z,1003.60
2019-06-08T01:33:33.867Z,1003.56
2019-06-08T01:34:33.901Z,1003.51
2019-06-08T01:35:33.922Z,1003.47
2019-06-08T01:36:33.948Z,1003.46
2019-06-08T01:37:33.976Z,1003.48
2019-06-08T01:38:34.009Z,1003.46
2019-06-08T01:39:34.033Z,1003.55
2019-06-08T01:40:34.068Z,1003.48
2019-06-08T01:41:34.085Z,1003.56
2019-06-08T01:42:34.118Z,1003.53
2019-06-08T01:43:34.141Z,1003.56
2019-06-08T01:44:34.197Z,1003.48
2019-06-08T01:45:34.201Z,1003.56
2019-06-08T01:46:34.230Z,1003.52
2019-06-08T01:47:34.261Z,1003.55
2019-06-08T01:48:34.287Z,1003.54
2019-06-08T01:49:34.320Z,1003.59
2019-06-08T01:50:34.342Z,1003.55
2019-06-08T01:51:34.364Z,1003.61
2019-06-08T01:52:34.401Z,1003.57
2019-06-08T01:53:34.421Z,1003.51
2019-06-08T01:54:34.446Z,1003.49
2019-06-08T01:55:34.523Z,1003.46
2019-06-08T01:56:34.508Z,1003.51
2019-06-08T01:57:34.529Z,1003.58
2019-06-08T01:58:34.562Z,1003.46
2019-06-08T01:59:34.822Z,1003.57
2019-06-08T02:00:39.463Z,1003.51
2019-06-08T02:01:34.639Z,1003.57
2019-06-08T02:02:34.681Z,1003.54
2019-06-08T02:03:34.923Z,1003.51
2019-06-08T02:04:34.884Z,1003.50
2019-06-08T02:05:34.756Z,1003.53
2019-06-08T02:06:34.817Z,1003.51
2019-06-08T02:07:34.805Z,1003.56
2019-06-08T02:08:34.832Z,1003.57
2019-06-08T02:09:34.987Z,1003.48
2019-06-08T02:10:35.055Z,1003.52
2019-06-08T02:11:35.031Z,1003.51
2019-06-08T02:12:35.350Z,1003.55
2019-06-08T02:13:35.360Z,1003.55
2019-06-08T02:14:35.437Z,1003.56
2019-06-08T02:15:35.391Z,1003.51
2019-06-08T02:16:35.429Z,1003.55
2019-06-08T02:17:35.570Z,1003.51
2019-06-08T02:18:43.838Z,1003.58
2019-06-08T02:19:35.136Z,1003.55
2019-06-08T02:20:35.400Z,1003.62
2019-06-08T02:21:35.193Z,1003.53
2019-06-08T02:22:35.223Z,1003.58
2019-06-08T02:23:35.252Z,1003.59
2019-06-08T02:24:35.523Z,1003.62
2019-06-08T02:25:35.720Z,1003.64
2019-06-08T02:26:36.392Z,1003.61
2019-06-08T02:27:35.807Z,1003.60
2019-06-08T02:28:35.915Z,1003.64
2019-06-08T02:29:35.758Z,1003.62
2019-06-08T02:30:38.578Z,1003.66
2019-06-08T02:31:37.512Z,1003.66
2019-06-08T02:32:37.258Z,1003.69
2019-06-08T02:33:37.269Z,1003.67
2019-06-08T02:34:37.966Z,1003.70
2019-06-08T02:35:37.664Z,1003.69
2019-06-08T02:36:37.589Z,1003.71
2019-06-08T02:37:37.701Z,1003.66
2019-06-08T02:38:36.142Z,1003.75
2019-06-08T02:39:37.826Z,1003.75
2019-06-08T02:40:36.906Z,1003.68
2019-06-08T02:41:37.391Z,1003.74
2019-06-08T02:42:37.204Z,1003.70
2019-06-08T02:43:37.714Z,1003.73
2019-06-08T02:44:36.370Z,1003.71
2019-06-08T02:45:36.984Z,1003.80
2019-06-08T02:46:37.599Z,1003.76
2019-06-08T02:47:36.742Z,1003.79
2019-06-08T02:48:56.250Z,1003.83
2019-06-08T02:49:37.561Z,1003.79
2019-06-08T02:50:37.357Z,1003.91
2019-06-08T02:51:37.889Z,1003.91
2019-06-08T02:52:36.307Z,1003.94
2019-06-08T02:53:38.215Z,1003.86
2019-06-08T02:54:37.839Z,1004.05
2019-06-08T02:55:37.254Z,1003.96
2019-06-08T02:56:37.265Z,1003.97
2019-06-08T02:57:37.692Z,1003.92
2019-06-08T02:58:39.110Z,1003.97
2019-06-08T02:59:37.960Z,1003.97
2019-06-08T03:00:37.452Z,1003.86
2019-06-08T03:01:38.273Z,1003.98
2019-06-08T03:02:38.211Z,1003.91
2019-06-08T03:03:38.071Z,1003.94
2019-06-08T03:04:36.542Z,1004.03
2019-06-08T03:05:38.021Z,1004.04
2019-06-08T03:06:37.385Z,1003.99
2019-06-08T03:07:36.984Z,1003.97
2019-06-08T03:08:38.568Z,1004.07
2019-06-08T03:09:36.665Z,1004.10
2019-06-08T03:10:37.206Z,1004.08
2019-06-08T03:11:37.023Z,1004.11
2019-06-08T03:12:37.610Z,1004.12
2019-06-08T03:13:38.444Z,1004.09
2019-06-08T03:14:37.682Z,1004.14
2019-06-08T03:15:38.605Z,1004.09
2019-06-08T03:16:39.038Z,1004.22
2019-06-08T03:17:37.770Z,1004.32
2019-06-08T03:18:38.332Z,1004.17
2019-06-08T03:19:37.559Z,1004.32
2019-06-08T03:20:37.824Z,1004.27
2019-06-08T03:21:38.324Z,1004.25
2019-06-08T03:22:38.818Z,1004.28
2019-06-08T03:23:38.769Z,1004.35
2019-06-08T03:24:38.555Z,1004.33
2019-06-08T03:25:50.769Z,1004.29
2019-06-08T03:26:39.765Z,1004.33
2019-06-08T03:27:38.776Z,1004.40
2019-06-08T03:28:37.734Z,1004.36
2019-06-08T03:29:37.624Z,1004.40
2019-06-08T03:30:42.166Z,1004.37
2019-06-08T03:31:45.866Z,1004.41
2019-06-08T03:32:42.009Z,1004.48
2019-06-08T03:33:45.304Z,1004.31
2019-06-08T03:34:43.072Z,1004.51
2019-06-08T03:35:46.464Z,1004.49
2019-06-08T03:36:43.796Z,1004.41
2019-06-08T03:37:37.846Z,1004.49
2019-06-08T03:38:37.718Z,1004.52
2019-06-08T03:39:38.816Z,1004.57
2019-06-08T03:40:38.236Z,1004.56
2019-06-08T03:41:38.502Z,1004.65
2019-06-08T03:42:51.082Z,1004.71
2019-06-08T03:43:39.720Z,1004.64
2019-06-08T03:44:38.445Z,1004.60
2019-06-08T03:45:38.251Z,1004.72
2019-06-08T03:46:38.864Z,1004.68
2019-06-08T03:47:38.996Z,1004.74
2019-06-08T03:48:39.542Z,1004.71
2019-06-08T03:49:50.643Z,1004.77
2019-06-08T03:50:39.560Z,1004.71
2019-06-08T03:51:40.853Z,1004.55
2019-06-08T03:52:39.434Z,1004.55
2019-06-08T03:53:39.553Z,1004.76
2019-06-08T03:54:38.907Z,1004.69
2019-06-08T03:55:38.520Z,1004.72
2019-06-08T03:56:38.087Z,1004.70
2019-06-08T03:57:38.349Z,1004.80
2019-06-08T03:58:38.526Z,1004.82
2019-06-08T03:59:38.561Z,1004.85
2019-06-08T04:00:38.294Z,1004.82
2019-06-08T04:01:39.642Z,1004.84
2019-06-08T04:02:39.808Z,1004.87
2019-06-08T04:03:39.817Z,1004.87
2019-06-08T04:04:39.834Z,1004.85
2019-06-08T04:05:40.246Z,1004.82
2019-06-08T04:06:39.751Z,1004.87
2019-06-08T04:07:39.679Z,1004.79
2019-06-08T04:08:40.210Z,1004.82
2019-06-08T04:09:39.724Z,1004.83
2019-06-08T04:10:39.711Z,1004.86
2019-06-08T04:11:39.942Z,1004.83
2019-06-08T04:12:39.772Z,1004.87
2019-06-08T04:13:39.793Z,1004.78
2019-06-08T04:14:39.740Z,1004.85
2019-06-08T04:15:40.148Z,1004.80
2019-06-08T04:16:40.036Z,1004.80
2019-06-08T04:17:39.761Z,1004.78
2019-06-08T04:18:40.168Z,1004.81
2019-06-08T04:19:39.849Z,1004.84
2019-06-08T04:20:40.081Z,1004.86
2019-06-08T04:21:40.135Z,1004.86
2019-06-08T04:22:40.262Z,1004.91
2019-06-08T04:23:40.305Z,1004.90
2019-06-08T04:24:40.043Z,1004.85
2019-06-08T04:25:40.418Z,1004.85
2019-06-08T04:26:40.461Z,1004.84
2019-06-08T04:27:40.258Z,1004.98
2019-06-08T04:28:40.353Z,1004.93
2019-06-08T04:29:39.602Z,1004.98
2019-06-08T04:30:39.349Z,1004.93
2019-06-08T04:31:39.628Z,1004.89
2019-06-08T04:32:40.536Z,1004.95
2019-06-08T04:33:40.349Z,1004.94
2019-06-08T04:34:38.863Z,1004.93
2019-06-08T04:35:40.224Z,1004.99
2019-06-08T04:36:39.027Z,1004.99
2019-06-08T04:37:40.524Z,1004.97
2019-06-08T04:38:39.074Z,1004.99
2019-06-08T04:39:40.243Z,1004.98
2019-06-08T04:40:39.530Z,1005.06
2019-06-08T04:41:40.780Z,1005.07
2019-06-08T04:42:39.430Z,1005.11
2019-06-08T04:43:40.406Z,1005.05
2019-06-08T04:44:40.515Z,1005.08
2019-06-08T04:45:40.917Z,1005.08
2019-06-08T04:46:40.781Z,1005.02
2019-06-08T04:47:40.988Z,1005.07
2019-06-08T04:48:40.597Z,1005.13
2019-06-08T04:49:40.054Z,1005.10
2019-06-08T04:50:40.853Z,1005.21
2019-06-08T04:51:40.760Z,1005.16
2019-06-08T04:52:40.798Z,1005.24
2019-06-08T04:53:40.863Z,1005.18
2019-06-08T04:54:40.793Z,1005.26
2019-06-08T04:55:40.884Z,1005.28
2019-06-08T04:56:40.899Z,1005.30
2019-06-08T04:57:41.919Z,1005.21
2019-06-08T04:58:41.627Z,1005.24
2019-06-08T04:59:41.135Z,1005.18
2019-06-08T05:00:41.137Z,1005.25
2019-06-08T05:01:40.869Z,1005.25
2019-06-08T05:02:41.526Z,1005.21
2019-06-08T05:03:41.243Z,1005.28
2019-06-08T05:04:41.001Z,1005.27
2019-06-08T05:05:41.094Z,1005.41
2019-06-08T05:06:40.998Z,1005.29
2019-06-08T05:07:41.385Z,1005.41
2019-06-08T05:08:40.946Z,1005.29
2019-06-08T05:09:41.086Z,1005.40
2019-06-08T05:10:41.272Z,1005.33
2019-06-08T05:11:41.088Z,1005.29
2019-06-08T05:12:41.268Z,1005.40
2019-06-08T05:13:41.150Z,1005.43
2019-06-08T05:14:41.037Z,1005.35
2019-06-08T05:15:41.404Z,1005.50
2019-06-08T05:16:41.258Z,1005.42
2019-06-08T05:17:41.349Z,1005.45
2019-06-08T05:18:41.282Z,1005.40
2019-06-08T05:19:41.127Z,1005.48
2019-06-08T05:20:43.114Z,1005.32
2019-06-08T05:21:41.566Z,1005.38
2019-06-08T05:22:41.442Z,1005.38
2019-06-08T05:23:41.324Z,1005.41
2019-06-08T05:24:41.339Z,1005.46
2019-06-08T05:25:41.203Z,1005.46
2019-06-08T05:26:41.763Z,1005.45
2019-06-08T05:27:41.203Z,1005.38
2019-06-08T05:28:41.252Z,1005.61
2019-06-08T05:29:41.277Z,1005.53
2019-06-08T05:30:41.272Z,1005.49
2019-06-08T05:31:41.490Z,1005.52
2019-06-08T05:32:41.405Z,1005.47
2019-06-08T05:33:41.303Z,1005.51
2019-06-08T05:34:41.405Z,1005.50
2019-06-08T05:35:41.370Z,1005.50
2019-06-08T05:36:41.374Z,1005.44
2019-06-08T05:37:41.485Z,1005.49
2019-06-08T05:38:41.591Z,1005.51
2019-06-08T05:39:41.472Z,1005.54
2019-06-08T05:40:41.518Z,1005.56
2019-06-08T05:41:41.392Z,1005.52
2019-06-08T05:42:42.400Z,1005.59
2019-06-08T05:43:41.641Z,1005.54
2019-06-08T05:44:41.590Z,1005.56
2019-06-08T05:45:41.523Z,1005.55
2019-06-08T05:46:41.752Z,1005.35
2019-06-08T05:47:41.787Z,1005.55
2019-06-08T05:48:41.873Z,1005.58
2019-06-08T05:49:41.615Z,1005.58
2019-06-08T05:50:54.896Z,1005.67
2019-06-08T05:51:41.741Z,1005.58
2019-06-08T05:52:41.890Z,1005.67
2019-06-08T05:53:41.659Z,1005.62
2019-06-08T05:54:41.778Z,1005.72
2019-06-08T05:55:41.714Z,1005.67
2019-06-08T05:56:41.966Z,1005.76
2019-06-08T05:57:42.097Z,1005.68
2019-06-08T05:58:41.833Z,1005.66
2019-06-08T05:59:42.067Z,1005.76
2019-06-08T06:00:42.163Z,1005.78
2019-06-08T06:01:42.494Z,1005.63
2019-06-08T06:02:42.260Z,1005.87
2019-06-08T06:03:42.279Z,1005.86
2019-06-08T06:04:42.402Z,1005.78
2019-06-08T06:05:42.406Z,1005.88
2019-06-08T06:06:42.395Z,1005.97
2019-06-08T06:07:42.592Z,1005.87
2019-06-08T06:08:42.482Z,1005.77
2019-06-08T06:09:42.932Z,1005.99
2019-06-08T06:10:42.765Z,1005.94
2019-06-08T06:11:42.870Z,1005.91
2019-06-08T06:12:42.926Z,1005.95
2019-06-08T06:13:42.702Z,1005.93
2019-06-08T06:14:42.747Z,1005.95
2019-06-08T06:15:42.953Z,1005.97
2019-06-08T06:16:43.017Z,1006.00
2019-06-08T06:17:43.785Z,1005.99
2019-06-08T06:18:42.870Z,1006.02
2019-06-08T06:19:42.911Z,1006.09
2019-06-08T06:20:43.259Z,1006.09
2019-06-08T06:21:42.984Z,1006.01
2019-06-08T06:22:42.352Z,1006.16
2019-06-08T06:23:43.095Z,1006.08
2019-06-08T06:24:43.678Z,1006.12
2019-06-08T06:25:43.315Z,1006.13
2019-06-08T06:26:43.171Z,1006.15
2019-06-08T06:27:43.337Z,1006.07
2019-06-08T06:28:43.242Z,1006.12
2019-06-08T06:29:43.396Z,1006.16
2019-06-08T06:30:42.039Z,1006.22
2019-06-08T06:31:42.066Z,1006.20
2019-06-08T06:32:42.091Z,1006.08
2019-06-08T06:33:42.136Z,1006.30
2019-06-08T06:34:42.156Z,1006.28
2019-06-08T06:35:42.180Z,1006.38
2019-06-08T06:36:42.200Z,1006.34
2019-06-08T06:37:42.234Z,1006.27
2019-06-08T06:38:42.258Z,1006.35
2019-06-08T06:39:42.283Z,1006.34
2019-06-08T06:40:42.310Z,1006.37
2019-06-08T06:41:42.341Z,1006.44
2019-06-08T06:42:42.367Z,1006.38
2019-06-08T06:43:43.867Z,1006.48
2019-06-08T06:44:45.198Z,1006.45
2019-06-08T06:45:43.780Z,1006.47
2019-06-08T06:46:43.888Z,1006.57
2019-06-08T06:47:42.509Z,1006.60
2019-06-08T06:48:42.529Z,1006.62
2019-06-08T06:49:42.563Z,1006.68
2019-06-08T06:50:42.585Z,1006.74
2019-06-08T06:51:42.611Z,1006.71
2019-06-08T06:52:42.840Z,1006.80
2019-06-08T06:53:42.850Z,1006.67
2019-06-08T06:54:42.853Z,1006.72
2019-06-08T06:55:42.892Z,1006.89
2019-06-08T06:56:43.143Z,1006.79
2019-06-08T06:57:43.524Z,1006.82
2019-06-08T06:58:43.075Z,1006.79
2019-06-08T06:59:43.328Z,1006.85
2019-06-08T07:00:43.262Z,1006.86
2019-06-08T07:01:43.430Z,1007.02
2019-06-08T07:02:43.562Z,1006.81
2019-06-08T07:03:44.126Z,1006.93
2019-06-08T07:04:43.723Z,1006.97
2019-06-08T07:05:43.742Z,1007.08
2019-06-08T07:06:44.033Z,1006.95
2019-06-08T07:07:44.127Z,1007.04
2019-06-08T07:08:44.076Z,1006.99
2019-06-08T07:09:44.306Z,1007.01
2019-06-08T07:10:44.506Z,1007.05
2019-06-08T07:11:44.415Z,1007.09
2019-06-08T07:12:44.428Z,1007.08
2019-06-08T07:13:43.229Z,1007.09
2019-06-08T07:14:43.244Z,1007.13
2019-06-08T07:15:43.267Z,1007.11
2019-06-08T07:16:43.294Z,1007.19
2019-06-08T07:17:43.326Z,1007.19
2019-06-08T07:18:43.352Z,1007.24
2019-06-08T07:19:43.377Z,1007.19
2019-06-08T07:20:43.404Z,1007.13
2019-06-08T07:21:43.432Z,1007.20
2019-06-08T07:22:43.459Z,1007.15
2019-06-08T07:23:43.498Z,1007.26
2019-06-08T07:24:43.557Z,1007.17
2019-06-08T07:25:43.541Z,1007.23
2019-06-08T07:26:43.571Z,1007.42
2019-06-08T07:27:43.595Z,1007.36
2019-06-08T07:28:43.624Z,1007.49
2019-06-08T07:29:43.651Z,1007.39
2019-06-08T07:30:43.677Z,1007.42
2019-06-08T07:31:43.706Z,1007.50
2019-06-08T07:32:43.739Z,1007.42
2019-06-08T07:33:43.917Z,1007.41
2019-06-08T07:34:43.788Z,1007.56
2019-06-08T07:35:43.813Z,1007.48
2019-06-08T07:36:43.844Z,1007.64
2019-06-08T07:37:43.876Z,1007.49
2019-06-08T07:38:43.899Z,1007.70
2019-06-08T07:39:43.935Z,1007.63
2019-06-08T07:40:43.950Z,1007.61
2019-06-08T07:41:43.982Z,1007.70
2019-06-08T07:42:44.005Z,1007.71
2019-06-08T07:43:44.032Z,1007.68
2019-06-08T07:44:44.060Z,1007.71
2019-06-08T07:45:44.090Z,1007.67
2019-06-08T07:46:44.115Z,1007.74
2019-06-08T07:47:44.148Z,1007.77
2019-06-08T07:48:44.169Z,1007.81
2019-06-08T07:49:44.198Z,1007.64
2019-06-08T07:50:44.226Z,1007.67
2019-06-08T07:51:57.703Z,1007.69
2019-06-08T07:52:44.280Z,1007.72
2019-06-08T07:53:44.306Z,1007.81
2019-06-08T07:54:44.333Z,1007.88
2019-06-08T07:55:45.390Z,1007.69
2019-06-08T07:56:44.391Z,1007.70
2019-06-08T07:57:44.415Z,1007.77
2019-06-08T07:58:44.452Z,1007.80
2019-06-08T07:59:44.471Z,1007.72
2019-06-08T08:00:44.500Z,1007.78
2019-06-08T08:01:44.528Z,1007.84
2019-06-08T08:02:44.559Z,1007.87
2019-06-08T08:03:44.580Z,1007.86
2019-06-08T08:04:44.611Z,1007.85
2019-06-08T08:05:44.635Z,1007.83
2019-06-08T08:06:44.663Z,1007.90
2019-06-08T08:07:44.714Z,1007.89
2019-06-08T08:08:44.720Z,1007.99
2019-06-08T08:09:44.747Z,1007.93
2019-06-08T08:10:44.773Z,1007.95
2019-06-08T08:11:44.810Z,1007.97
2019-06-08T08:12:44.836Z,1007.87
2019-06-08T08:13:44.857Z,1007.93
2019-06-08T08:14:44.882Z,1007.95
2019-06-08T08:15:44.909Z,1007.96
2019-06-08T08:16:44.938Z,1007.99
2019-06-08T08:17:44.965Z,1008.02
2019-06-08T08:18:44.996Z,1008.06
2019-06-08T08:19:45.023Z,1008.03
2019-06-08T08:20:45.049Z,1008.00
2019-06-08T08:21:45.083Z,1008.06
2019-06-08T08:22:45.106Z,1008.01
2019-06-08T08:23:45.131Z,1008.06
2019-06-08T08:24:45.165Z,1008.05
2019-06-08T08:25:47.313Z,1008.09
2019-06-08T08:26:45.212Z,1007.97
2019-06-08T08:27:45.239Z,1008.06
2019-06-08T08:28:45.269Z,1008.19
2019-06-08T08:29:47.477Z,1008.06
2019-06-08T08:30:45.322Z,1008.04
2019-06-08T08:31:45.360Z,1008.05
2019-06-08T08:32:47.953Z,1008.23
2019-06-08T08:33:45.412Z,1007.96
2019-06-08T08:34:47.535Z,1008.09
2019-06-08T08:35:45.462Z,1008.14
2019-06-08T08:36:48.003Z,1008.17
2019-06-08T08:37:47.428Z,1008.18
2019-06-08T08:38:47.710Z,1008.18
2019-06-08T08:39:47.330Z,1008.18
2019-06-08T08:40:45.598Z,1008.41
2019-06-08T08:41:45.630Z,1008.19
2019-06-08T08:42:48.131Z,1008.26
2019-06-08T08:43:45.680Z,1008.15
2019-06-08T08:44:45.706Z,1008.28
2019-06-08T08:45:47.710Z,1008.36
2019-06-08T08:46:48.610Z,1008.22
2019-06-08T08:47:48.350Z,1008.23
2019-06-08T08:48:45.818Z,1008.25
2019-06-08T08:49:47.855Z,1008.31
2019-06-08T08:50:48.189Z,1008.31
2019-06-08T08:51:47.719Z,1008.44
2019-06-08T08:52:47.724Z,1008.34
2019-06-08T08:53:48.170Z,1008.40
2019-06-08T08:54:47.508Z,1008.44
2019-06-08T08:55:47.987Z,1008.47
2019-06-08T08:56:50.453Z,1008.42
2019-06-08T08:57:48.382Z,1008.42
2019-06-08T08:58:47.797Z,1008.39
2019-06-08T08:59:50.154Z,1008.42
2019-06-08T09:00:48.658Z,1008.44
2019-06-08T09:01:48.137Z,1008.42
2019-06-08T09:02:46.202Z,1008.53
2019-06-08T09:03:48.253Z,1008.46
2019-06-08T09:04:47.735Z,1008.46
2019-06-08T09:05:48.279Z,1008.39
2019-06-08T09:06:48.313Z,1008.58
2019-06-08T09:07:48.262Z,1008.46
2019-06-08T09:08:48.401Z,1008.49
2019-06-08T09:09:48.209Z,1008.56
2019-06-08T09:10:48.115Z,1008.54
2019-06-08T09:11:48.326Z,1008.59
2019-06-08T09:12:48.609Z,1008.55
2019-06-08T09:13:48.718Z,1008.39
2019-06-08T09:14:47.981Z,1008.47
2019-06-08T09:15:47.978Z,1008.51
2019-06-08T09:16:48.211Z,1008.68
2019-06-08T09:17:48.292Z,1008.60
2019-06-08T09:18:48.013Z,1008.54
2019-06-08T09:19:48.037Z,1008.78
2019-06-08T09:20:47.902Z,1008.61
2019-06-08T09:21:48.223Z,1008.56
2019-06-08T09:22:53.826Z,1008.87
2019-06-08T09:23:48.624Z,1008.74
2019-06-08T09:24:48.597Z,1008.71
2019-06-08T09:25:48.334Z,1008.69
2019-06-08T09:26:47.728Z,1008.74
2019-06-08T09:27:48.266Z,1008.74
2019-06-08T09:28:46.926Z,1008.79
2019-06-08T09:29:48.197Z,1008.73
2019-06-08T09:30:48.369Z,1008.85
2019-06-08T09:31:49.017Z,1008.80
2019-06-08T09:32:47.798Z,1008.80
2019-06-08T09:33:53.383Z,1008.80
2019-06-08T09:34:48.358Z,1008.93
2019-06-08T09:35:47.879Z,1008.87
2019-06-08T09:36:47.828Z,1008.86
2019-06-08T09:37:48.562Z,1008.85
2019-06-08T09:38:47.956Z,1008.78
2019-06-08T09:39:48.303Z,1008.83
2019-06-08T09:40:48.896Z,1008.81
2019-06-08T09:41:47.895Z,1008.89
2019-06-08T09:42:47.305Z,1008.90
2019-06-08T09:43:48.703Z,1008.71
2019-06-08T09:44:48.313Z,1008.93
2019-06-08T09:45:48.326Z,1008.92
2019-06-08T09:46:48.099Z,1008.93
2019-06-08T09:47:47.926Z,1009.00
2019-06-08T09:48:48.676Z,1008.93
2019-06-08T09:49:48.025Z,1008.85
2019-06-08T09:50:48.621Z,1008.95
2019-06-08T09:51:48.716Z,1009.04
2019-06-08T09:52:47.980Z,1009.01
2019-06-08T09:53:47.785Z,1008.99
2019-06-08T09:54:48.207Z,1009.06
2019-06-08T09:55:48.241Z,1009.05
2019-06-08T09:56:47.953Z,1009.13
2019-06-08T09:57:48.518Z,1009.17
2019-06-08T09:58:51.141Z,1009.30
2019-06-08T09:59:48.332Z,1009.80
2019-06-08T10:00:48.681Z,1009.90
2019-06-08T10:01:47.905Z,1009.18
2019-06-08T10:02:48.032Z,1009.02
2019-06-08T10:03:48.319Z,1008.98
2019-06-08T10:04:48.462Z,1009.03
2019-06-08T10:05:48.429Z,1009.01
2019-06-08T10:06:48.080Z,1009.05
2019-06-08T10:07:48.702Z,1009.16
2019-06-08T10:08:48.174Z,1009.13
2019-06-08T10:09:50.248Z,1009.05
2019-06-08T10:10:48.496Z,1008.98
2019-06-08T10:11:48.126Z,1009.13
2019-06-08T10:12:48.397Z,1009.05
2019-06-08T10:13:48.180Z,1009.07
2019-06-08T10:14:48.959Z,1009.12
2019-06-08T10:15:51.338Z,1009.11
2019-06-08T10:16:48.267Z,1009.19
2019-06-08T10:17:48.296Z,1009.10
2019-06-08T10:18:51.444Z,1009.19
2019-06-08T10:19:48.351Z,1009.24
2019-06-08T10:20:48.389Z,1008.99
2019-06-08T10:21:48.412Z,1009.24
2019-06-08T10:22:50.470Z,1009.21
2019-06-08T10:23:48.561Z,1009.11
2019-06-08T10:24:49.144Z,1009.25
2019-06-08T10:25:48.523Z,1009.07
2019-06-08T10:26:48.562Z,1009.27
2019-06-08T10:27:48.588Z,1009.09
2019-06-08T10:28:51.260Z,1009.15
2019-06-08T10:29:48.640Z,1009.13
2019-06-08T10:30:48.753Z,1009.04
2019-06-08T10:31:48.711Z,1009.31
2019-06-08T10:32:50.724Z,1009.37
2019-06-08T10:33:48.751Z,1009.12
2019-06-08T10:34:48.783Z,1009.34
2019-06-08T10:35:48.824Z,1009.36
2019-06-08T10:36:48.841Z,1009.45
2019-06-08T10:37:51.178Z,1009.50
2019-06-08T10:38:48.899Z,1009.42
2019-06-08T10:39:48.923Z,1009.41
2019-06-08T10:40:48.963Z,1009.33
2019-06-08T10:41:51.665Z,1009.36
2019-06-08T10:42:49.017Z,1009.38
2019-06-08T10:43:49.035Z,1009.05
2019-06-08T10:44:49.071Z,1009.32
2019-06-08T10:45:51.221Z,1009.26
2019-06-08T10:46:49.122Z,1009.56
2019-06-08T10:47:49.152Z,1009.48
2019-06-08T10:48:49.181Z,1009.59
2019-06-08T10:49:49.207Z,1009.55
2019-06-08T10:50:49.274Z,1009.50
2019-06-08T10:51:49.266Z,1009.50
2019-06-08T10:52:49.302Z,1009.37
2019-06-08T10:53:52.867Z,1009.48
2019-06-08T10:54:49.352Z,1009.58
2019-06-08T10:55:49.377Z,1009.63
2019-06-08T10:56:49.408Z,1009.63
2019-06-08T10:57:49.443Z,1009.58
2019-06-08T10:58:49.886Z,1009.51
2019-06-08T10:59:49.499Z,1009.67
2019-06-08T11:00:49.522Z,1009.64
2019-06-08T11:01:49.550Z,1009.74
2019-06-08T11:02:49.585Z,1009.71
2019-06-08T11:03:49.617Z,1009.68
2019-06-08T11:04:49.634Z,1009.88
2019-06-08T11:05:51.391Z,1009.76
2019-06-08T11:06:49.719Z,1009.77
2019-06-08T11:07:49.722Z,1009.91
2019-06-08T11:08:49.749Z,1010.63
2019-06-08T11:09:50.803Z,1010.75
2019-06-08T11:10:49.807Z,1010.09
2019-06-08T11:11:49.843Z,1010.57
2019-06-08T11:12:49.877Z,1010.41
2019-06-08T11:13:50.461Z,1009.83
2019-06-08T11:14:49.921Z,1009.97
2019-06-08T11:15:49.949Z,1010.46
2019-06-08T11:16:49.986Z,1009.87
2019-06-08T11:17:50.025Z,1009.78
2019-06-08T11:18:51.152Z,1009.74
2019-06-08T11:19:50.066Z,1009.79
2019-06-08T11:20:50.127Z,1009.82
2019-06-08T11:21:50.154Z,1009.88
2019-06-08T11:22:50.305Z,1010.00
2019-06-08T11:24:05.474Z,1009.94
2019-06-08T11:24:50.214Z,1009.95
2019-06-08T11:25:50.244Z,1009.92
2019-06-08T11:26:50.271Z,1010.05
2019-06-08T11:27:50.302Z,1010.18
2019-06-08T11:28:51.290Z,1010.13
2019-06-08T11:29:50.385Z,1010.02
2019-06-08T11:30:50.390Z,1010.04
2019-06-08T11:31:50.961Z,1010.12
2019-06-08T11:32:50.448Z,1010.17
2019-06-08T11:33:50.475Z,1010.18
2019-06-08T11:34:50.525Z,1010.09
2019-06-08T11:35:50.532Z,1010.23
2019-06-08T11:36:51.565Z,1010.20
2019-06-08T11:37:50.592Z,1010.34
2019-06-08T11:38:50.633Z,1010.33
2019-06-08T11:39:50.651Z,1010.98
2019-06-08T11:40:50.679Z,1010.29
2019-06-08T11:41:50.709Z,1010.31
2019-06-08T11:42:50.735Z,1010.18
2019-06-08T11:44:51.080Z,1010.15
2019-06-08T11:45:48.385Z,1010.24
2019-06-08T11:46:48.409Z,1010.18
2019-06-08T11:47:48.564Z,1010.11
2019-06-08T11:48:48.590Z,1010.25
2019-06-08T11:49:50.054Z,1010.30
2019-06-08T11:50:49.141Z,1010.18
2019-06-08T11:51:48.560Z,1010.20
2019-06-08T11:52:49.301Z,1010.37
2019-06-08T11:53:52.003Z,1010.22
2019-06-08T11:54:48.642Z,1010.22
2019-06-08T11:55:51.154Z,1010.30
2019-06-08T11:56:48.707Z,1010.24
2019-06-08T11:57:48.884Z,1010.23
2019-06-08T11:58:48.758Z,1010.48
2019-06-08T11:59:48.786Z,1010.31
2019-06-08T12:00:48.929Z,1010.35
2019-06-08T12:01:50.538Z,1010.36
2019-06-08T12:02:48.874Z,1010.40
2019-06-08T12:03:49.102Z,1010.41
2019-06-08T12:04:48.930Z,1010.33
2019-06-08T12:05:50.912Z,1010.46
2019-06-08T12:06:48.994Z,1010.07
2019-06-08T12:08:31.569Z,1010.37
2019-06-08T12:09:31.602Z,1010.32